sensor_id;sensor_type;location;lat;lon;timestamp;P1;durP1;ratioP1;P2;durP2;ratioP2
19887;SDS011;10106;51.332;12.336;2023-05-21T00:00:05;680.80;;;349.07;;
19887;SDS011;10106;51.332;12.336;2023-05-21T00:02:36;747.30;;;630.83;;
19887;SDS011;10106;51.332;12.336;2023-05-21T00:05:03;694.37;;;386.53;;
19887;SDS011;10106;51.332;12.336;2023-05-21T00:07:29;686.63;;;369.10;;
19887;SDS011;10106;51.332;12.336;2023-05-21T00:09:58;682.00;;;358.97;;
19887;SDS011;10106;51.332;12.336;2023-05-21T00:12:24;684.33;;;342.43;;
19887;SDS011;10106;51.332;12.336;2023-05-21T00:14:50;681.57;;;335.23;;
19887;SDS011;10106;51.332;12.336;2023-05-21T00:17:16;684.47;;;339.47;;
19887;SDS011;10106;51.332;12.336;2023-05-21T00:19:42;683.53;;;346.93;;
19887;SDS011;10106;51.332;12.336;2023-05-21T00:22:08;681.20;;;337.47;;
19887;SDS011;10106;51.332;12.336;2023-05-21T00:24:34;682.47;;;341.07;;
19887;SDS011;10106;51.332;12.336;2023-05-21T00:27:00;685.33;;;340.37;;
19887;SDS011;10106;51.332;12.336;2023-05-21T00:29:26;684.77;;;342.80;;
19887;SDS011;10106;51.332;12.336;2023-05-21T00:31:54;680.80;;;325.20;;
19887;SDS011;10106;51.332;12.336;2023-05-21T00:34:19;678.33;;;325.37;;
19887;SDS011;10106;51.332;12.336;2023-05-21T00:36:47;681.43;;;326.43;;
19887;SDS011;10106;51.332;12.336;2023-05-21T00:39:13;681.93;;;335.90;;
19887;SDS011;10106;51.332;12.336;2023-05-21T00:41:39;686.80;;;326.97;;
19887;SDS011;10106;51.332;12.336;2023-05-21T00:44:07;678.10;;;334.00;;
19887;SDS011;10106;51.332;12.336;2023-05-21T00:46:33;687.70;;;343.87;;
19887;SDS011;10106;51.332;12.336;2023-05-21T00:49:00;687.60;;;345.80;;
19887;SDS011;10106;51.332;12.336;2023-05-21T00:51:26;689.23;;;340.77;;
19887;SDS011;10106;51.332;12.336;2023-05-21T00:53:54;687.43;;;336.77;;
19887;SDS011;10106;51.332;12.336;2023-05-21T00:56:20;683.80;;;336.33;;
19887;SDS011;10106;51.332;12.336;2023-05-21T00:58:49;686.37;;;323.93;;
19887;SDS011;10106;51.332;12.336;2023-05-21T01:01:18;679.03;;;313.37;;
19887;SDS011;10106;51.332;12.336;2023-05-21T01:03:43;680.53;;;319.03;;
19887;SDS011;10106;51.332;12.336;2023-05-21T01:06:12;678.67;;;327.37;;
19887;SDS011;10106;51.332;12.336;2023-05-21T01:08:38;699.00;;;334.63;;
19887;SDS011;10106;51.332;12.336;2023-05-21T01:11:06;687.33;;;342.93;;
19887;SDS011;10106;51.332;12.336;2023-05-21T01:13:33;686.27;;;328.60;;
19887;SDS011;10106;51.332;12.336;2023-05-21T01:16:03;683.40;;;322.70;;
19887;SDS011;10106;51.332;12.336;2023-05-21T01:18:31;675.73;;;309.90;;
19887;SDS011;10106;51.332;12.336;2023-05-21T01:20:59;843.15;;;756.50;;
19887;SDS011;10106;51.332;12.336;2023-05-21T01:23:26;699.23;;;389.33;;
19887;SDS011;10106;51.332;12.336;2023-05-21T01:25:52;691.03;;;358.87;;
19887;SDS011;10106;51.332;12.336;2023-05-21T01:28:18;687.23;;;344.13;;
19887;SDS011;10106;51.332;12.336;2023-05-21T01:30:44;683.47;;;339.73;;
19887;SDS011;10106;51.332;12.336;2023-05-21T01:36:06;678.80;;;315.80;;
19887;SDS011;10106;51.332;12.336;2023-05-21T01:38:41;677.23;;;305.87;;
19887;SDS011;10106;51.332;12.336;2023-05-21T01:41:13;680.90;;;316.60;;
19887;SDS011;10106;51.332;12.336;2023-05-21T01:43:44;679.43;;;312.47;;
19887;SDS011;10106;51.332;12.336;2023-05-21T01:46:12;670.93;;;300.67;;
19887;SDS011;10106;51.332;12.336;2023-05-21T01:48:41;675.17;;;299.40;;
19887;SDS011;10106;51.332;12.336;2023-05-21T01:51:08;679.87;;;307.20;;
19887;SDS011;10106;51.332;12.336;2023-05-21T01:53:35;684.05;;;332.00;;
19887;SDS011;10106;51.332;12.336;2023-05-21T01:56:04;686.17;;;323.47;;
19887;SDS011;10106;51.332;12.336;2023-05-21T01:58:30;685.03;;;321.43;;
19887;SDS011;10106;51.332;12.336;2023-05-21T02:00:56;680.33;;;315.97;;
19887;SDS011;10106;51.332;12.336;2023-05-21T02:03:23;689.17;;;313.90;;
19887;SDS011;10106;51.332;12.336;2023-05-21T02:05:51;684.40;;;315.90;;
19887;SDS011;10106;51.332;12.336;2023-05-21T02:08:17;679.60;;;319.77;;
19887;SDS011;10106;51.332;12.336;2023-05-21T02:10:44;682.70;;;310.37;;
19887;SDS011;10106;51.332;12.336;2023-05-21T02:13:10;680.57;;;309.10;;
19887;SDS011;10106;51.332;12.336;2023-05-21T02:15:36;681.20;;;309.27;;
19887;SDS011;10106;51.332;12.336;2023-05-21T02:18:03;680.13;;;295.57;;
19887;SDS011;10106;51.332;12.336;2023-05-21T02:20:29;670.83;;;289.23;;
19887;SDS011;10106;51.332;12.336;2023-05-21T02:22:55;671.00;;;293.63;;
19887;SDS011;10106;51.332;12.336;2023-05-21T02:25:21;680.00;;;307.00;;
19887;SDS011;10106;51.332;12.336;2023-05-21T02:27:47;671.43;;;292.90;;
19887;SDS011;10106;51.332;12.336;2023-05-21T02:30:18;676.07;;;282.43;;
19887;SDS011;10106;51.332;12.336;2023-05-21T02:32:44;676.50;;;303.83;;
19887;SDS011;10106;51.332;12.336;2023-05-21T02:35:10;672.43;;;290.63;;
19887;SDS011;10106;51.332;12.336;2023-05-21T02:37:45;669.73;;;287.07;;
19887;SDS011;10106;51.332;12.336;2023-05-21T02:40:11;671.53;;;288.13;;
19887;SDS011;10106;51.332;12.336;2023-05-21T02:42:37;671.40;;;289.40;;
19887;SDS011;10106;51.332;12.336;2023-05-21T02:45:08;673.10;;;293.73;;
19887;SDS011;10106;51.332;12.336;2023-05-21T02:47:35;669.27;;;284.43;;
19887;SDS011;10106;51.332;12.336;2023-05-21T02:53:24;667.40;;;275.10;;
19887;SDS011;10106;51.332;12.336;2023-05-21T02:55:50;663.80;;;274.87;;
19887;SDS011;10106;51.332;12.336;2023-05-21T02:58:16;670.60;;;278.93;;
19887;SDS011;10106;51.332;12.336;2023-05-21T03:00:42;663.47;;;262.67;;
19887;SDS011;10106;51.332;12.336;2023-05-21T03:03:07;666.07;;;279.27;;
19887;SDS011;10106;51.332;12.336;2023-05-21T03:05:34;661.43;;;263.27;;
19887;SDS011;10106;51.332;12.336;2023-05-21T03:07:59;662.90;;;274.83;;
19887;SDS011;10106;51.332;12.336;2023-05-21T03:10:25;665.13;;;272.87;;
19887;SDS011;10106;51.332;12.336;2023-05-21T03:12:51;667.17;;;278.63;;
19887;SDS011;10106;51.332;12.336;2023-05-21T03:15:18;669.40;;;280.77;;
19887;SDS011;10106;51.332;12.336;2023-05-21T03:17:48;666.70;;;279.17;;
19887;SDS011;10106;51.332;12.336;2023-05-21T03:20:18;669.77;;;274.43;;
19887;SDS011;10106;51.332;12.336;2023-05-21T03:22:44;676.33;;;287.63;;
19887;SDS011;10106;51.332;12.336;2023-05-21T03:25:16;670.00;;;283.07;;
19887;SDS011;10106;51.332;12.336;2023-05-21T03:27:42;666.20;;;263.60;;
19887;SDS011;10106;51.332;12.336;2023-05-21T03:30:08;679.03;;;285.13;;
19887;SDS011;10106;51.332;12.336;2023-05-21T03:32:34;679.80;;;297.70;;
19887;SDS011;10106;51.332;12.336;2023-05-21T03:35:02;679.03;;;288.27;;
19887;SDS011;10106;51.332;12.336;2023-05-21T03:37:29;680.27;;;288.10;;
19887;SDS011;10106;51.332;12.336;2023-05-21T03:39:54;681.77;;;298.03;;
19887;SDS011;10106;51.332;12.336;2023-05-21T03:42:34;680.33;;;304.63;;
19887;SDS011;10106;51.332;12.336;2023-05-21T03:45:09;680.37;;;309.60;;
19887;SDS011;10106;51.332;12.336;2023-05-21T03:47:46;676.67;;;302.50;;
19887;SDS011;10106;51.332;12.336;2023-05-21T03:50:12;672.60;;;286.97;;
19887;SDS011;10106;51.332;12.336;2023-05-21T03:52:38;675.80;;;293.57;;
19887;SDS011;10106;51.332;12.336;2023-05-21T03:55:04;673.67;;;284.43;;
19887;SDS011;10106;51.332;12.336;2023-05-21T03:57:30;679.13;;;300.50;;
19887;SDS011;10106;51.332;12.336;2023-05-21T03:59:56;676.30;;;291.80;;
19887;SDS011;10106;51.332;12.336;2023-05-21T04:02:25;673.53;;;289.93;;
19887;SDS011;10106;51.332;12.336;2023-05-21T04:04:51;676.97;;;305.00;;
19887;SDS011;10106;51.332;12.336;2023-05-21T04:07:20;676.40;;;298.83;;
19887;SDS011;10106;51.332;12.336;2023-05-21T04:09:46;676.97;;;308.73;;
19887;SDS011;10106;51.332;12.336;2023-05-21T04:12:12;674.23;;;297.33;;
19887;SDS011;10106;51.332;12.336;2023-05-21T04:14:38;689.60;;;323.77;;
19887;SDS011;10106;51.332;12.336;2023-05-21T04:17:04;673.87;;;305.37;;
19887;SDS011;10106;51.332;12.336;2023-05-21T04:19:30;694.57;;;340.10;;
19887;SDS011;10106;51.332;12.336;2023-05-21T04:21:56;686.40;;;334.83;;
19887;SDS011;10106;51.332;12.336;2023-05-21T04:24:22;691.10;;;342.53;;
19887;SDS011;10106;51.332;12.336;2023-05-21T04:26:48;698.90;;;342.53;;
19887;SDS011;10106;51.332;12.336;2023-05-21T04:29:14;687.43;;;345.50;;
19887;SDS011;10106;51.332;12.336;2023-05-21T04:31:46;691.17;;;348.63;;
19887;SDS011;10106;51.332;12.336;2023-05-21T04:34:12;695.27;;;358.23;;
19887;SDS011;10106;51.332;12.336;2023-05-21T04:36:42;697.97;;;364.10;;
19887;SDS011;10106;51.332;12.336;2023-05-21T04:39:09;693.37;;;361.23;;
19887;SDS011;10106;51.332;12.336;2023-05-21T04:41:38;694.80;;;363.97;;
19887;SDS011;10106;51.332;12.336;2023-05-21T04:44:07;694.70;;;369.97;;
19887;SDS011;10106;51.332;12.336;2023-05-21T04:46:34;699.80;;;383.77;;
19887;SDS011;10106;51.332;12.336;2023-05-21T04:49:03;699.43;;;378.63;;
19887;SDS011;10106;51.332;12.336;2023-05-21T04:51:29;705.90;;;384.17;;
19887;SDS011;10106;51.332;12.336;2023-05-21T04:53:55;693.90;;;363.27;;
19887;SDS011;10106;51.332;12.336;2023-05-21T04:56:22;698.17;;;387.80;;
19887;SDS011;10106;51.332;12.336;2023-05-21T04:58:54;699.43;;;389.20;;
19887;SDS011;10106;51.332;12.336;2023-05-21T05:06:33;708.10;;;376.30;;
19887;SDS011;10106;51.332;12.336;2023-05-21T05:08:59;699.03;;;386.47;;
19887;SDS011;10106;51.332;12.336;2023-05-21T05:11:33;695.17;;;381.77;;
19887;SDS011;10106;51.332;12.336;2023-05-21T05:13:58;697.10;;;403.27;;
19887;SDS011;10106;51.332;12.336;2023-05-21T05:16:24;694.00;;;391.83;;
19887;SDS011;10106;51.332;12.336;2023-05-21T05:18:50;701.80;;;411.77;;
19887;SDS011;10106;51.332;12.336;2023-05-21T05:21:16;702.30;;;405.13;;
19887;SDS011;10106;51.332;12.336;2023-05-21T05:23:42;702.37;;;418.73;;
19887;SDS011;10106;51.332;12.336;2023-05-21T05:26:09;719.13;;;443.57;;
19887;SDS011;10106;51.332;12.336;2023-05-21T05:28:35;713.10;;;458.93;;
19887;SDS011;10106;51.332;12.336;2023-05-21T05:31:00;719.83;;;473.10;;
19887;SDS011;10106;51.332;12.336;2023-05-21T05:33:26;721.93;;;500.87;;
19887;SDS011;10106;51.332;12.336;2023-05-21T05:35:52;732.43;;;534.60;;
19887;SDS011;10106;51.332;12.336;2023-05-21T05:38:17;740.30;;;579.45;;
19887;SDS011;10106;51.332;12.336;2023-05-21T05:40:43;1099.50;;;999.90;;
19887;SDS011;10106;51.332;12.336;2023-05-21T06:19:38;747.77;;;619.00;;
19887;SDS011;10106;51.332;12.336;2023-05-21T06:22:04;746.00;;;629.73;;
19887;SDS011;10106;51.332;12.336;2023-05-21T06:24:30;758.03;;;670.50;;
19887;SDS011;10106;51.332;12.336;2023-05-21T06:26:55;752.77;;;626.57;;
19887;SDS011;10106;51.332;12.336;2023-05-21T06:29:21;752.07;;;633.80;;
19887;SDS011;10106;51.332;12.336;2023-05-21T06:31:47;758.50;;;652.87;;
19887;SDS011;10106;51.332;12.336;2023-05-21T06:34:13;755.70;;;636.93;;
19887;SDS011;10106;51.332;12.336;2023-05-21T06:36:39;763.67;;;668.73;;
19887;SDS011;10106;51.332;12.336;2023-05-21T06:39:05;782.97;;;697.53;;
19887;SDS011;10106;51.332;12.336;2023-05-21T06:41:30;779.07;;;693.57;;
19887;SDS011;10106;51.332;12.336;2023-05-21T06:43:56;1108.13;;;999.90;;
19887;SDS011;10106;51.332;12.336;2023-05-21T06:46:22;918.40;;;828.73;;
19887;SDS011;10106;51.332;12.336;2023-05-21T06:48:48;931.00;;;840.33;;
19887;SDS011;10106;51.332;12.336;2023-05-21T06:51:14;925.43;;;836.07;;
19887;SDS011;10106;51.332;12.336;2023-05-21T06:53:39;935.13;;;845.07;;
19887;SDS011;10106;51.332;12.336;2023-05-21T06:56:06;965.33;;;873.70;;
19887;SDS011;10106;51.332;12.336;2023-05-21T06:58:32;978.27;;;886.10;;
19887;SDS011;10106;51.332;12.336;2023-05-21T07:03:26;1021.20;;;926.70;;
19887;SDS011;10106;51.332;12.336;2023-05-21T07:05:53;1295.68;;;999.90;;
19887;SDS011;10106;51.332;12.336;2023-05-21T07:08:18;1349.60;;;999.90;;
19887;SDS011;10106;51.332;12.336;2023-05-21T07:10:44;1377.80;;;999.90;;
19887;SDS011;10106;51.332;12.336;2023-05-21T07:13:11;1395.05;;;999.90;;
19887;SDS011;10106;51.332;12.336;2023-05-21T07:15:37;1410.40;;;999.90;;
19887;SDS011;10106;51.332;12.336;2023-05-21T07:18:02;1371.40;;;999.90;;
19887;SDS011;10106;51.332;12.336;2023-05-21T07:20:28;1413.22;;;999.90;;
19887;SDS011;10106;51.332;12.336;2023-05-21T07:22:54;1264.70;;;999.90;;
19887;SDS011;10106;51.332;12.336;2023-05-21T07:25:20;1251.67;;;999.90;;
19887;SDS011;10106;51.332;12.336;2023-05-21T07:27:47;1252.60;;;999.90;;
19887;SDS011;10106;51.332;12.336;2023-05-21T07:30:13;1262.07;;;999.90;;
19887;SDS011;10106;51.332;12.336;2023-05-21T07:32:39;1261.37;;;999.90;;
19887;SDS011;10106;51.332;12.336;2023-05-21T07:35:05;1271.53;;;999.90;;
19887;SDS011;10106;51.332;12.336;2023-05-21T07:37:31;1267.78;;;999.90;;
19887;SDS011;10106;51.332;12.336;2023-05-21T07:39:57;1270.75;;;999.90;;
19887;SDS011;10106;51.332;12.336;2023-05-21T07:42:23;1274.13;;;999.90;;
19887;SDS011;10106;51.332;12.336;2023-05-21T07:44:53;1277.82;;;999.90;;
19887;SDS011;10106;51.332;12.336;2023-05-21T07:47:19;1278.28;;;999.90;;
19887;SDS011;10106;51.332;12.336;2023-05-21T07:49:45;1277.72;;;999.90;;
19887;SDS011;10106;51.332;12.336;2023-05-21T07:52:11;1279.47;;;999.90;;
19887;SDS011;10106;51.332;12.336;2023-05-21T07:54:39;1287.18;;;999.90;;
19887;SDS011;10106;51.332;12.336;2023-05-21T07:57:05;1294.35;;;999.90;;
19887;SDS011;10106;51.332;12.336;2023-05-21T07:59:31;1288.25;;;999.90;;
19887;SDS011;10106;51.332;12.336;2023-05-21T08:01:57;1291.68;;;999.90;;
19887;SDS011;10106;51.332;12.336;2023-05-21T08:04:23;1293.55;;;999.90;;
19887;SDS011;10106;51.332;12.336;2023-05-21T08:06:50;1301.15;;;999.90;;
19887;SDS011;10106;51.332;12.336;2023-05-21T08:09:16;1291.13;;;999.90;;
19887;SDS011;10106;51.332;12.336;2023-05-21T08:11:44;1293.13;;;999.90;;
19887;SDS011;10106;51.332;12.336;2023-05-21T08:14:10;1291.65;;;999.90;;
19887;SDS011;10106;51.332;12.336;2023-05-21T08:16:35;1297.90;;;999.90;;
19887;SDS011;10106;51.332;12.336;2023-05-21T08:19:02;1299.07;;;999.90;;
19887;SDS011;10106;51.332;12.336;2023-05-21T08:21:27;1298.20;;;999.90;;
19887;SDS011;10106;51.332;12.336;2023-05-21T08:23:53;1297.28;;;999.90;;
19887;SDS011;10106;51.332;12.336;2023-05-21T08:26:19;1297.70;;;999.90;;
19887;SDS011;10106;51.332;12.336;2023-05-21T08:28:45;1301.60;;;999.90;;
19887;SDS011;10106;51.332;12.336;2023-05-21T08:31:11;1306.03;;;999.90;;
19887;SDS011;10106;51.332;12.336;2023-05-21T08:33:37;1301.35;;;999.90;;
19887;SDS011;10106;51.332;12.336;2023-05-21T08:36:06;1290.13;;;999.90;;
19887;SDS011;10106;51.332;12.336;2023-05-21T08:38:33;1297.75;;;999.90;;
19887;SDS011;10106;51.332;12.336;2023-05-21T08:40:59;1216.40;;;999.90;;
19887;SDS011;10106;51.332;12.336;2023-05-21T08:43:28;1290.90;;;999.90;;
19887;SDS011;10106;51.332;12.336;2023-05-21T08:45:54;1297.47;;;999.90;;
19887;SDS011;10106;51.332;12.336;2023-05-21T08:48:22;1301.75;;;999.90;;
19887;SDS011;10106;51.332;12.336;2023-05-21T08:50:52;1298.43;;;999.90;;
19887;SDS011;10106;51.332;12.336;2023-05-21T08:53:19;1296.70;;;999.90;;
19887;SDS011;10106;51.332;12.336;2023-05-21T08:55:46;1295.28;;;999.90;;
19887;SDS011;10106;51.332;12.336;2023-05-21T08:58:12;1287.20;;;999.90;;
19887;SDS011;10106;51.332;12.336;2023-05-21T09:00:38;1296.10;;;999.90;;
19887;SDS011;10106;51.332;12.336;2023-05-21T09:03:04;1298.63;;;999.90;;
19887;SDS011;10106;51.332;12.336;2023-05-21T09:05:33;1285.05;;;999.90;;
19887;SDS011;10106;51.332;12.336;2023-05-21T09:08:20;1294.18;;;999.90;;
19887;SDS011;10106;51.332;12.336;2023-05-21T09:10:49;1289.57;;;999.90;;
19887;SDS011;10106;51.332;12.336;2023-05-21T09:13:15;1285.82;;;999.90;;
19887;SDS011;10106;51.332;12.336;2023-05-21T09:15:45;1294.35;;;999.90;;
19887;SDS011;10106;51.332;12.336;2023-05-21T09:18:15;1285.82;;;999.90;;
19887;SDS011;10106;51.332;12.336;2023-05-21T09:20:40;1289.35;;;999.90;;
19887;SDS011;10106;51.332;12.336;2023-05-21T09:23:10;1280.03;;;999.90;;
19887;SDS011;10106;51.332;12.336;2023-05-21T09:25:40;1284.55;;;999.90;;
19887;SDS011;10106;51.332;12.336;2023-05-21T09:28:12;1285.50;;;999.90;;
19887;SDS011;10106;51.332;12.336;2023-05-21T09:30:46;1286.47;;;999.90;;
19887;SDS011;10106;51.332;12.336;2023-05-21T09:33:26;1273.13;;;999.90;;
19887;SDS011;10106;51.332;12.336;2023-05-21T09:35:55;1282.35;;;999.90;;
19887;SDS011;10106;51.332;12.336;2023-05-21T09:38:22;1204.20;;;999.90;;
19887;SDS011;10106;51.332;12.336;2023-05-21T09:40:49;1253.63;;;999.90;;
19887;SDS011;10106;51.332;12.336;2023-05-21T09:43:14;1219.20;;;999.90;;
19887;SDS011;10106;51.332;12.336;2023-05-21T09:45:52;1265.05;;;999.90;;
19887;SDS011;10106;51.332;12.336;2023-05-21T09:48:37;1259.47;;;999.90;;
19887;SDS011;10106;51.332;12.336;2023-05-21T09:51:08;1374.53;;;999.90;;
19887;SDS011;10106;51.332;12.336;2023-05-21T09:53:42;1279.65;;;999.90;;
19887;SDS011;10106;51.332;12.336;2023-05-21T09:56:09;1265.72;;;999.90;;
19887;SDS011;10106;51.332;12.336;2023-05-21T09:58:35;1402.15;;;999.90;;
19887;SDS011;10106;51.332;12.336;2023-05-21T11:04:09;1080.13;;;985.27;;
19887;SDS011;10106;51.332;12.336;2023-05-21T11:06:36;1100.80;;;998.33;;
19887;SDS011;10106;51.332;12.336;2023-05-21T11:09:11;1102.83;;;999.90;;
19887;SDS011;10106;51.332;12.336;2023-05-21T11:14:29;1096.10;;;997.73;;
19887;SDS011;10106;51.332;12.336;2023-05-21T11:17:10;1108.03;;;999.90;;
19887;SDS011;10106;51.332;12.336;2023-05-21T11:19:40;1104.47;;;999.83;;
19887;SDS011;10106;51.332;12.336;2023-05-21T11:22:24;1118.27;;;999.90;;
19887;SDS011;10106;51.332;12.336;2023-05-21T11:24:53;1128.57;;;999.90;;
19887;SDS011;10106;51.332;12.336;2023-05-21T11:29:58;1114.40;;;999.90;;
19887;SDS011;10106;51.332;12.336;2023-05-21T11:32:27;1127.10;;;999.90;;
19887;SDS011;10106;51.332;12.336;2023-05-21T11:34:54;997.40;;;906.00;;
19887;SDS011;10106;51.332;12.336;2023-05-21T11:37:25;1049.83;;;954.93;;
19887;SDS011;10106;51.332;12.336;2023-05-21T11:40:18;1097.80;;;999.90;;
19887;SDS011;10106;51.332;12.336;2023-05-21T11:42:48;1074.25;;;979.60;;
19887;SDS011;10106;51.332;12.336;2023-05-21T11:45:16;1120.73;;;999.90;;
19887;SDS011;10106;51.332;12.336;2023-05-21T11:47:44;1117.83;;;999.90;;
19887;SDS011;10106;51.332;12.336;2023-05-21T11:50:11;1109.93;;;999.90;;
19887;SDS011;10106;51.332;12.336;2023-05-21T11:52:38;1115.30;;;999.90;;
19887;SDS011;10106;51.332;12.336;2023-05-21T11:55:06;1072.50;;;973.70;;
19887;SDS011;10106;51.332;12.336;2023-05-21T11:57:32;1035.07;;;937.50;;
19887;SDS011;10106;51.332;12.336;2023-05-21T11:59:59;1058.90;;;964.10;;
19887;SDS011;10106;51.332;12.336;2023-05-21T12:02:26;1063.77;;;967.23;;
19887;SDS011;10106;51.332;12.336;2023-05-21T12:04:55;1079.87;;;984.67;;
19887;SDS011;10106;51.332;12.336;2023-05-21T12:07:25;1132.43;;;999.90;;
19887;SDS011;10106;51.332;12.336;2023-05-21T12:09:53;1137.23;;;999.90;;
19887;SDS011;10106;51.332;12.336;2023-05-21T12:12:22;1119.33;;;999.90;;
19887;SDS011;10106;51.332;12.336;2023-05-21T12:14:57;1126.47;;;999.90;;
19887;SDS011;10106;51.332;12.336;2023-05-21T12:17:23;1127.20;;;999.90;;
19887;SDS011;10106;51.332;12.336;2023-05-21T12:19:54;1146.50;;;999.90;;
19887;SDS011;10106;51.332;12.336;2023-05-21T12:22:23;1122.13;;;999.90;;
19887;SDS011;10106;51.332;12.336;2023-05-21T12:24:51;1121.57;;;999.90;;
19887;SDS011;10106;51.332;12.336;2023-05-21T12:27:17;982.55;;;887.60;;
19887;SDS011;10106;51.332;12.336;2023-05-21T12:29:47;1080.60;;;984.50;;
19887;SDS011;10106;51.332;12.336;2023-05-21T12:34:47;1029.17;;;933.27;;
19887;SDS011;10106;51.332;12.336;2023-05-21T12:37:28;1127.87;;;999.90;;
19887;SDS011;10106;51.332;12.336;2023-05-21T12:40:00;1125.07;;;999.90;;
19887;SDS011;10106;51.332;12.336;2023-05-21T12:42:31;1129.30;;;999.90;;
19887;SDS011;10106;51.332;12.336;2023-05-21T12:44:58;1148.97;;;999.90;;
19887;SDS011;10106;51.332;12.336;2023-05-21T12:47:26;1130.77;;;999.90;;
19887;SDS011;10106;51.332;12.336;2023-05-21T12:49:53;1144.07;;;999.90;;
19887;SDS011;10106;51.332;12.336;2023-05-21T12:52:22;1155.00;;;999.90;;
19887;SDS011;10106;51.332;12.336;2023-05-21T12:54:51;1147.37;;;999.90;;
19887;SDS011;10106;51.332;12.336;2023-05-21T12:57:19;1150.50;;;999.90;;
19887;SDS011;10106;51.332;12.336;2023-05-21T13:00:08;1138.40;;;999.90;;
19887;SDS011;10106;51.332;12.336;2023-05-21T13:05:08;1126.63;;;999.90;;
19887;SDS011;10106;51.332;12.336;2023-05-21T13:07:39;1140.87;;;999.90;;
19887;SDS011;10106;51.332;12.336;2023-05-21T13:10:05;1122.43;;;999.90;;
19887;SDS011;10106;51.332;12.336;2023-05-21T13:12:31;1106.43;;;999.90;;
19887;SDS011;10106;51.332;12.336;2023-05-21T13:14:58;1115.67;;;999.90;;
19887;SDS011;10106;51.332;12.336;2023-05-21T13:17:29;1127.20;;;999.90;;
19887;SDS011;10106;51.332;12.336;2023-05-21T13:22:38;1119.33;;;999.90;;
19887;SDS011;10106;51.332;12.336;2023-05-21T13:25:12;1117.20;;;999.90;;
19887;SDS011;10106;51.332;12.336;2023-05-21T13:27:44;1107.57;;;999.90;;
19887;SDS011;10106;51.332;12.336;2023-05-21T13:30:14;1103.70;;;999.63;;
19887;SDS011;10106;51.332;12.336;2023-05-21T13:32:41;1115.60;;;999.90;;
19887;SDS011;10106;51.332;12.336;2023-05-21T13:35:07;1105.53;;;999.90;;
19887;SDS011;10106;51.332;12.336;2023-05-21T13:37:34;1101.40;;;999.07;;
19887;SDS011;10106;51.332;12.336;2023-05-21T13:40:03;1124.57;;;999.90;;
19887;SDS011;10106;51.332;12.336;2023-05-21T13:42:34;1109.50;;;999.90;;
19887;SDS011;10106;51.332;12.336;2023-05-21T13:45:12;992.50;;;900.43;;
19887;SDS011;10106;51.332;12.336;2023-05-21T13:47:42;1101.77;;;999.13;;
19887;SDS011;10106;51.332;12.336;2023-05-21T13:50:09;1125.00;;;999.90;;
19887;SDS011;10106;51.332;12.336;2023-05-21T13:52:36;1105.55;;;999.90;;
19887;SDS011;10106;51.332;12.336;2023-05-21T13:55:03;1112.95;;;999.90;;
19887;SDS011;10106;51.332;12.336;2023-05-21T13:57:29;899.40;;;809.50;;
19887;SDS011;10106;51.332;12.336;2023-05-21T13:59:56;1106.50;;;999.90;;
19887;SDS011;10106;51.332;12.336;2023-05-21T14:02:25;1109.63;;;999.90;;
19887;SDS011;10106;51.332;12.336;2023-05-21T14:04:52;1111.37;;;999.90;;
19887;SDS011;10106;51.332;12.336;2023-05-21T14:07:18;1099.67;;;998.60;;
19887;SDS011;10106;51.332;12.336;2023-05-21T14:09:44;1102.87;;;999.90;;
19887;SDS011;10106;51.332;12.336;2023-05-21T14:12:11;1107.47;;;999.90;;
19887;SDS011;10106;51.332;12.336;2023-05-21T14:14:37;1113.03;;;999.90;;
19887;SDS011;10106;51.332;12.336;2023-05-21T14:17:03;1084.97;;;990.33;;
19887;SDS011;10106;51.332;12.336;2023-05-21T14:19:30;1100.60;;;999.77;;
19887;SDS011;10106;51.332;12.336;2023-05-21T14:21:56;1108.00;;;999.90;;
19887;SDS011;10106;51.332;12.336;2023-05-21T14:24:24;1092.83;;;995.77;;
19887;SDS011;10106;51.332;12.336;2023-05-21T14:26:50;1093.33;;;996.07;;
19887;SDS011;10106;51.332;12.336;2023-05-21T14:29:15;1080.40;;;986.03;;
19887;SDS011;10106;51.332;12.336;2023-05-21T14:31:44;1088.73;;;993.67;;
19887;SDS011;10106;51.332;12.336;2023-05-21T14:34:10;1095.50;;;998.23;;
19887;SDS011;10106;51.332;12.336;2023-05-21T14:36:36;1087.77;;;992.50;;
19887;SDS011;10106;51.332;12.336;2023-05-21T14:39:01;1086.27;;;991.40;;
19887;SDS011;10106;51.332;12.336;2023-05-21T14:41:27;1099.70;;;998.20;;
19887;SDS011;10106;51.332;12.336;2023-05-21T14:43:53;1096.97;;;998.13;;
19887;SDS011;10106;51.332;12.336;2023-05-21T14:46:19;1086.30;;;991.77;;
19887;SDS011;10106;51.332;12.336;2023-05-21T14:48:45;1087.30;;;991.47;;
19887;SDS011;10106;51.332;12.336;2023-05-21T14:53:40;1094.23;;;996.83;;
19887;SDS011;10106;51.332;12.336;2023-05-21T14:56:06;1081.97;;;987.80;;
19887;SDS011;10106;51.332;12.336;2023-05-21T14:58:33;1080.30;;;985.93;;
19887;SDS011;10106;51.332;12.336;2023-05-21T15:00:59;1047.07;;;955.40;;
19887;SDS011;10106;51.332;12.336;2023-05-21T15:03:25;1068.83;;;974.83;;
19887;SDS011;10106;51.332;12.336;2023-05-21T15:05:53;1069.97;;;976.70;;
19887;SDS011;10106;51.332;12.336;2023-05-21T15:10:49;1076.13;;;982.53;;
19887;SDS011;10106;51.332;12.336;2023-05-21T15:15:54;1075.60;;;982.47;;
19887;SDS011;10106;51.332;12.336;2023-05-21T15:18:20;1057.63;;;965.03;;
19887;SDS011;10106;51.332;12.336;2023-05-21T15:20:48;1098.00;;;998.83;;
19887;SDS011;10106;51.332;12.336;2023-05-21T15:23:16;1083.67;;;989.20;;
19887;SDS011;10106;51.332;12.336;2023-05-21T15:25:42;1096.60;;;998.63;;
19887;SDS011;10106;51.332;12.336;2023-05-21T15:28:07;1102.80;;;999.90;;
19887;SDS011;10106;51.332;12.336;2023-05-21T15:30:33;1083.13;;;989.67;;
19887;SDS011;10106;51.332;12.336;2023-05-21T15:32:59;1070.67;;;974.90;;
19887;SDS011;10106;51.332;12.336;2023-05-21T15:35:26;1083.40;;;988.50;;
19887;SDS011;10106;51.332;12.336;2023-05-21T15:37:52;1050.80;;;952.45;;
19887;SDS011;10106;51.332;12.336;2023-05-21T15:40:17;1037.93;;;943.37;;
19887;SDS011;10106;51.332;12.336;2023-05-21T15:42:43;1100.73;;;999.57;;
19887;SDS011;10106;51.332;12.336;2023-05-21T15:45:09;1087.07;;;992.50;;
19887;SDS011;10106;51.332;12.336;2023-05-21T15:47:35;1074.73;;;981.63;;
19887;SDS011;10106;51.332;12.336;2023-05-21T15:50:07;1074.00;;;980.73;;
19887;SDS011;10106;51.332;12.336;2023-05-21T15:52:33;1066.93;;;973.77;;
19887;SDS011;10106;51.332;12.336;2023-05-21T15:54:59;1066.80;;;974.23;;